sensor_id;sensor_type;location;lat;lon;timestamp;temperature;humidity
18906;DHT22;9585;51.018;4.282;2024-02-28T00:01:49;2.90;99.90
18906;DHT22;9585;51.018;4.282;2024-02-28T00:04:18;2.80;99.90
18906;DHT22;9585;51.018;4.282;2024-02-28T00:06:46;2.80;99.90
18906;DHT22;9585;51.018;4.282;2024-02-28T00:09:14;2.80;99.90
18906;DHT22;9585;51.018;4.282;2024-02-28T00:11:43;2.70;99.90
18906;DHT22;9585;51.018;4.282;2024-02-28T00:14:11;2.70;99.90
18906;DHT22;9585;51.018;4.282;2024-02-28T00:16:40;2.60;99.90
18906;DHT22;9585;51.018;4.282;2024-02-28T00:19:08;2.60;99.90
18906;DHT22;9585;51.018;4.282;2024-02-28T00:21:39;2.60;99.90
18906;DHT22;9585;51.018;4.282;2024-02-28T00:24:07;2.50;99.90
18906;DHT22;9585;51.018;4.282;2024-02-28T00:26:34;2.50;99.90
18906;DHT22;9585;51.018;4.282;2024-02-28T00:29:02;2.50;99.90
18906;DHT22;9585;51.018;4.282;2024-02-28T00:31:30;2.40;99.90
18906;DHT22;9585;51.018;4.282;2024-02-28T00:33:57;2.40;99.90
18906;DHT22;9585;51.018;4.282;2024-02-28T00:36:25;2.40;99.90
18906;DHT22;9585;51.018;4.282;2024-02-28T00:38:55;2.30;99.90
18906;DHT22;9585;51.018;4.282;2024-02-28T00:41:22;2.30;99.90
18906;DHT22;9585;51.018;4.282;2024-02-28T00:43:50;2.30;99.90
18906;DHT22;9585;51.018;4.282;2024-02-28T00:46:18;2.30;99.90
18906;DHT22;9585;51.018;4.282;2024-02-28T00:48:45;2.30;99.90
18906;DHT22;9585;51.018;4.282;2024-02-28T00:51:13;2.30;99.90
18906;DHT22;9585;51.018;4.282;2024-02-28T00:53:41;2.20;99.90
18906;DHT22;9585;51.018;4.282;2024-02-28T00:56:11;2.20;99.90
18906;DHT22;9585;51.018;4.282;2024-02-28T00:58:38;2.20;99.90
18906;DHT22;9585;51.018;4.282;2024-02-28T01:01:06;2.10;99.90
18906;DHT22;9585;51.018;4.282;2024-02-28T01:03:34;2.10;99.90
18906;DHT22;9585;51.018;4.282;2024-02-28T01:06:04;2.10;99.90
18906;DHT22;9585;51.018;4.282;2024-02-28T01:08:31;2.10;99.90
18906;DHT22;9585;51.018;4.282;2024-02-28T01:10:59;2.10;99.90
18906;DHT22;9585;51.018;4.282;2024-02-28T01:13:29;2.10;99.90
18906;DHT22;9585;51.018;4.282;2024-02-28T01:15:56;2.00;99.90
18906;DHT22;9585;51.018;4.282;2024-02-28T01:18:25;2.00;99.90
18906;DHT22;9585;51.018;4.282;2024-02-28T01:20:56;2.00;99.90
18906;DHT22;9585;51.018;4.282;2024-02-28T01:23:24;2.00;99.90
18906;DHT22;9585;51.018;4.282;2024-02-28T01:25:51;1.90;99.90
18906;DHT22;9585;51.018;4.282;2024-02-28T01:28:19;1.90;99.90
18906;DHT22;9585;51.018;4.282;2024-02-28T01:30:49;1.90;99.90
18906;DHT22;9585;51.018;4.282;2024-02-28T01:33:16;1.90;99.90
18906;DHT22;9585;51.018;4.282;2024-02-28T01:35:44;1.90;99.90
18906;DHT22;9585;51.018;4.282;2024-02-28T01:38:12;1.90;99.90
18906;DHT22;9585;51.018;4.282;2024-02-28T01:40:44;1.90;99.90
18906;DHT22;9585;51.018;4.282;2024-02-28T01:43:12;1.80;99.90
18906;DHT22;9585;51.018;4.282;2024-02-28T01:45:40;1.70;99.90
18906;DHT22;9585;51.018;4.282;2024-02-28T01:48:12;1.80;99.90
18906;DHT22;9585;51.018;4.282;2024-02-28T01:50:41;1.70;99.90
18906;DHT22;9585;51.018;4.282;2024-02-28T01:53:10;1.70;99.90
18906;DHT22;9585;51.018;4.282;2024-02-28T01:55:39;1.70;99.90
18906;DHT22;9585;51.018;4.282;2024-02-28T01:58:07;1.70;99.90
18906;DHT22;9585;51.018;4.282;2024-02-28T02:00:36;1.60;99.90
18906;DHT22;9585;51.018;4.282;2024-02-28T02:03:04;1.70;99.90
18906;DHT22;9585;51.018;4.282;2024-02-28T02:05:37;1.70;99.90
18906;DHT22;9585;51.018;4.282;2024-02-28T02:08:05;1.60;99.90
18906;DHT22;9585;51.018;4.282;2024-02-28T02:10:32;1.60;99.90
18906;DHT22;9585;51.018;4.282;2024-02-28T02:13:04;1.60;99.90
18906;DHT22;9585;51.018;4.282;2024-02-28T02:15:32;1.60;99.90
18906;DHT22;9585;51.018;4.282;2024-02-28T02:17:59;1.60;99.90
18906;DHT22;9585;51.018;4.282;2024-02-28T02:20:30;1.60;99.90
18906;DHT22;9585;51.018;4.282;2024-02-28T02:23:01;1.60;99.90
18906;DHT22;9585;51.018;4.282;2024-02-28T02:25:28;1.60;99.90
18906;DHT22;9585;51.018;4.282;2024-02-28T02:27:56;1.60;99.90
18906;DHT22;9585;51.018;4.282;2024-02-28T02:30:23;1.60;99.90
18906;DHT22;9585;51.018;4.282;2024-02-28T02:32:51;1.60;99.90
18906;DHT22;9585;51.018;4.282;2024-02-28T02:35:18;1.60;99.90
18906;DHT22;9585;51.018;4.282;2024-02-28T02:37:46;1.60;99.90
18906;DHT22;9585;51.018;4.282;2024-02-28T02:40:15;1.60;99.90
18906;DHT22;9585;51.018;4.282;2024-02-28T02:42:43;1.60;99.90
18906;DHT22;9585;51.018;4.282;2024-02-28T02:45:11;1.50;99.90
18906;DHT22;9585;51.018;4.282;2024-02-28T02:47:38;1.50;99.90
18906;DHT22;9585;51.018;4.282;2024-02-28T02:50:06;1.50;99.90
18906;DHT22;9585;51.018;4.282;2024-02-28T02:52:34;1.50;99.90
18906;DHT22;9585;51.018;4.282;2024-02-28T02:55:02;1.50;99.90
18906;DHT22;9585;51.018;4.282;2024-02-28T02:57:36;1.50;99.90
18906;DHT22;9585;51.018;4.282;2024-02-28T03:00:09;1.40;99.90
18906;DHT22;9585;51.018;4.282;2024-02-28T03:02:37;1.50;99.90
18906;DHT22;9585;51.018;4.282;2024-02-28T03:05:06;1.50;99.90
18906;DHT22;9585;51.018;4.282;2024-02-28T03:07:34;1.50;99.90
18906;DHT22;9585;51.018;4.282;2024-02-28T03:10:01;1.50;99.90
18906;DHT22;9585;51.018;4.282;2024-02-28T03:12:30;1.50;99.90
18906;DHT22;9585;51.018;4.282;2024-02-28T03:14:58;1.50;99.90
18906;DHT22;9585;51.018;4.282;2024-02-28T03:17:26;1.50;99.90
18906;DHT22;9585;51.018;4.282;2024-02-28T03:19:53;1.40;99.90
18906;DHT22;9585;51.018;4.282;2024-02-28T03:22:21;1.40;99.90
18906;DHT22;9585;51.018;4.282;2024-02-28T03:24:48;1.40;99.90
18906;DHT22;9585;51.018;4.282;2024-02-28T03:27:16;1.40;99.90
18906;DHT22;9585;51.018;4.282;2024-02-28T03:29:45;1.40;99.90
18906;DHT22;9585;51.018;4.282;2024-02-28T03:32:12;1.40;99.90
18906;DHT22;9585;51.018;4.282;2024-02-28T03:34:40;1.30;99.90
18906;DHT22;9585;51.018;4.282;2024-02-28T03:37:08;1.30;99.90
18906;DHT22;9585;51.018;4.282;2024-02-28T03:39:36;1.20;99.90
18906;DHT22;9585;51.018;4.282;2024-02-28T03:42:03;1.20;99.90
18906;DHT22;9585;51.018;4.282;2024-02-28T03:44:31;1.20;99.90
18906;DHT22;9585;51.018;4.282;2024-02-28T03:47:00;1.20;99.90
18906;DHT22;9585;51.018;4.282;2024-02-28T03:49:27;1.20;99.90
18906;DHT22;9585;51.018;4.282;2024-02-28T03:51:55;1.10;99.90
18906;DHT22;9585;51.018;4.282;2024-02-28T03:54:22;1.20;99.90
18906;DHT22;9585;51.018;4.282;2024-02-28T03:56:50;1.20;99.90
18906;DHT22;9585;51.018;4.282;2024-02-28T03:59:17;1.20;99.90
18906;DHT22;9585;51.018;4.282;2024-02-28T04:01:45;1.20;99.90
18906;DHT22;9585;51.018;4.282;2024-02-28T04:04:14;1.20;99.90
18906;DHT22;9585;51.018;4.282;2024-02-28T04:06:41;1.20;99.90
18906;DHT22;9585;51.018;4.282;2024-02-28T04:09:09;1.20;99.90
18906;DHT22;9585;51.018;4.282;2024-02-28T04:11:37;1.20;99.90
18906;DHT22;9585;51.018;4.282;2024-02-28T04:14:05;1.20;99.90
18906;DHT22;9585;51.018;4.282;2024-02-28T04:16:32;1.20;99.90
18906;DHT22;9585;51.018;4.282;2024-02-28T04:19:00;1.10;99.90
18906;DHT22;9585;51.018;4.282;2024-02-28T04:21:29;1.10;99.90
18906;DHT22;9585;51.018;4.282;2024-02-28T04:23:57;1.20;99.90
18906;DHT22;9585;51.018;4.282;2024-02-28T04:26:24;1.20;99.90
18906;DHT22;9585;51.018;4.282;2024-02-28T04:28:51;1.20;99.90
18906;DHT22;9585;51.018;4.282;2024-02-28T04:31:19;1.20;99.90
18906;DHT22;9585;51.018;4.282;2024-02-28T04:33:46;1.20;99.90
18906;DHT22;9585;51.018;4.282;2024-02-28T04:36:14;1.30;99.90
18906;DHT22;9585;51.018;4.282;2024-02-28T04:38:43;1.40;99.90
18906;DHT22;9585;51.018;4.282;2024-02-28T04:41:11;1.40;99.90
18906;DHT22;9585;51.018;4.282;2024-02-28T04:43:38;1.40;99.90
18906;DHT22;9585;51.018;4.282;2024-02-28T04:46:07;1.50;99.90
18906;DHT22;9585;51.018;4.282;2024-02-28T04:48:34;1.40;99.90
18906;DHT22;9585;51.018;4.282;2024-02-28T04:51:02;1.50;99.90
18906;DHT22;9585;51.018;4.282;2024-02-28T04:53:30;1.50;99.90
18906;DHT22;9585;51.018;4.282;2024-02-28T04:56:00;1.50;99.90
18906;DHT22;9585;51.018;4.282;2024-02-28T04:58:27;1.50;99.90
18906;DHT22;9585;51.018;4.282;2024-02-28T05:00:55;1.50;99.90
18906;DHT22;9585;51.018;4.282;2024-02-28T05:03:22;1.40;99.90
18906;DHT22;9585;51.018;4.282;2024-02-28T05:05:50;1.40;99.90
18906;DHT22;9585;51.018;4.282;2024-02-28T05:08:19;1.40;99.90
18906;DHT22;9585;51.018;4.282;2024-02-28T05:10:49;1.40;99.90
18906;DHT22;9585;51.018;4.282;2024-02-28T05:13:19;1.30;99.90
18906;DHT22;9585;51.018;4.282;2024-02-28T05:15:48;1.30;99.90
18906;DHT22;9585;51.018;4.282;2024-02-28T05:18:15;1.30;99.90
18906;DHT22;9585;51.018;4.282;2024-02-28T05:20:43;1.30;99.90
18906;DHT22;9585;51.018;4.282;2024-02-28T05:23:11;1.40;99.90
18906;DHT22;9585;51.018;4.282;2024-02-28T05:25:38;1.40;99.90
18906;DHT22;9585;51.018;4.282;2024-02-28T05:28:06;1.40;99.90
18906;DHT22;9585;51.018;4.282;2024-02-28T05:30:35;1.40;99.90
18906;DHT22;9585;51.018;4.282;2024-02-28T05:33:03;1.50;99.90
18906;DHT22;9585;51.018;4.282;2024-02-28T05:35:30;1.50;99.90
18906;DHT22;9585;51.018;4.282;2024-02-28T05:37:58;1.50;99.90
18906;DHT22;9585;51.018;4.282;2024-02-28T05:40:26;1.60;99.90
18906;DHT22;9585;51.018;4.282;2024-02-28T05:42:53;1.60;99.90
18906;DHT22;9585;51.018;4.282;2024-02-28T05:45:20;1.70;99.90
18906;DHT22;9585;51.018;4.282;2024-02-28T05:47:50;1.70;99.90
18906;DHT22;9585;51.018;4.282;2024-02-28T05:50:18;1.80;99.90
18906;DHT22;9585;51.018;4.282;2024-02-28T05:52:44;1.80;99.90
18906;DHT22;9585;51.018;4.282;2024-02-28T05:55:11;1.80;99.90
18906;DHT22;9585;51.018;4.282;2024-02-28T05:57:39;1.90;99.90
18906;DHT22;9585;51.018;4.282;2024-02-28T06:00:07;1.90;99.90
18906;DHT22;9585;51.018;4.282;2024-02-28T06:02:36;1.90;99.90
18906;DHT22;9585;51.018;4.282;2024-02-28T06:05:07;1.90;99.90
18906;DHT22;9585;51.018;4.282;2024-02-28T06:07:34;2.00;99.90
18906;DHT22;9585;51.018;4.282;2024-02-28T06:10:02;2.20;99.90
18906;DHT22;9585;51.018;4.282;2024-02-28T06:12:34;2.10;99.90
18906;DHT22;9585;51.018;4.282;2024-02-28T06:15:02;2.20;99.90
18906;DHT22;9585;51.018;4.282;2024-02-28T06:17:29;2.30;99.90
18906;DHT22;9585;51.018;4.282;2024-02-28T06:19:57;2.40;99.90
18906;DHT22;9585;51.018;4.282;2024-02-28T06:22:26;2.40;99.90
18906;DHT22;9585;51.018;4.282;2024-02-28T06:24:53;2.50;99.90
18906;DHT22;9585;51.018;4.282;2024-02-28T06:27:21;2.50;99.90
18906;DHT22;9585;51.018;4.282;2024-02-28T06:29:49;2.60;99.90
18906;DHT22;9585;51.018;4.282;2024-02-28T06:32:16;2.60;99.90
18906;DHT22;9585;51.018;4.282;2024-02-28T06:34:43;2.70;99.90
18906;DHT22;9585;51.018;4.282;2024-02-28T06:37:11;2.80;99.90
18906;DHT22;9585;51.018;4.282;2024-02-28T06:39:40;2.80;99.90
18906;DHT22;9585;51.018;4.282;2024-02-28T06:42:08;2.90;99.90
18906;DHT22;9585;51.018;4.282;2024-02-28T06:44:35;2.80;99.90
18906;DHT22;9585;51.018;4.282;2024-02-28T06:47:03;2.80;99.90
18906;DHT22;9585;51.018;4.282;2024-02-28T06:49:39;2.80;99.90
18906;DHT22;9585;51.018;4.282;2024-02-28T06:52:11;2.90;99.90
18906;DHT22;9585;51.018;4.282;2024-02-28T06:54:59;2.90;99.90
18906;DHT22;9585;51.018;4.282;2024-02-28T06:57:32;3.00;99.90
18906;DHT22;9585;51.018;4.282;2024-02-28T07:00:33;3.10;99.90
18906;DHT22;9585;51.018;4.282;2024-02-28T07:03:16;3.20;99.90
18906;DHT22;9585;51.018;4.282;2024-02-28T07:05:50;3.30;99.90
18906;DHT22;9585;51.018;4.282;2024-02-28T07:16:08;3.70;99.90
18906;DHT22;9585;51.018;4.282;2024-02-28T07:22:29;4.00;99.90
18906;DHT22;9585;51.018;4.282;2024-02-28T07:25:09;4.20;99.90
18906;DHT22;9585;51.018;4.282;2024-02-28T07:27:40;4.20;99.90
18906;DHT22;9585;51.018;4.282;2024-02-28T07:30:16;4.30;99.90
18906;DHT22;9585;51.018;4.282;2024-02-28T07:32:48;4.40;99.90
18906;DHT22;9585;51.018;4.282;2024-02-28T07:35:56;4.40;99.90
18906;DHT22;9585;51.018;4.282;2024-02-28T07:41:44;4.60;99.90
18906;DHT22;9585;51.018;4.282;2024-02-28T07:44:53;4.70;99.90
18906;DHT22;9585;51.018;4.282;2024-02-28T07:47:24;4.90;99.90
18906;DHT22;9585;51.018;4.282;2024-02-28T07:49:54;4.90;99.90
18906;DHT22;9585;51.018;4.282;2024-02-28T07:52:21;5.00;99.90
18906;DHT22;9585;51.018;4.282;2024-02-28T07:54:49;4.90;99.90
18906;DHT22;9585;51.018;4.282;2024-02-28T07:57:17;4.90;99.90
18906;DHT22;9585;51.018;4.282;2024-02-28T07:59:45;5.00;99.90
18906;DHT22;9585;51.018;4.282;2024-02-28T08:02:13;5.00;99.90
18906;DHT22;9585;51.018;4.282;2024-02-28T08:04:40;5.10;99.90
18906;DHT22;9585;51.018;4.282;2024-02-28T08:07:10;5.10;99.90
18906;DHT22;9585;51.018;4.282;2024-02-28T08:09:38;5.20;99.90
18906;DHT22;9585;51.018;4.282;2024-02-28T08:12:06;5.30;99.90
18906;DHT22;9585;51.018;4.282;2024-02-28T08:14:34;5.30;99.90
18906;DHT22;9585;51.018;4.282;2024-02-28T08:17:01;5.30;99.90
18906;DHT22;9585;51.018;4.282;2024-02-28T08:19:29;5.40;99.90
18906;DHT22;9585;51.018;4.282;2024-02-28T08:21:56;5.40;99.90
18906;DHT22;9585;51.018;4.282;2024-02-28T08:24:25;5.40;99.90
18906;DHT22;9585;51.018;4.282;2024-02-28T08:26:53;5.40;99.90
18906;DHT22;9585;51.018;4.282;2024-02-28T08:29:21;5.40;99.90
18906;DHT22;9585;51.018;4.282;2024-02-28T08:31:49;5.50;99.90
18906;DHT22;9585;51.018;4.282;2024-02-28T08:34:16;5.60;99.90
18906;DHT22;9585;51.018;4.282;2024-02-28T08:36:44;5.70;99.90
18906;DHT22;9585;51.018;4.282;2024-02-28T08:39:12;5.80;99.90
18906;DHT22;9585;51.018;4.282;2024-02-28T08:41:41;5.80;99.90
18906;DHT22;9585;51.018;4.282;2024-02-28T08:44:09;5.80;99.90
18906;DHT22;9585;51.018;4.282;2024-02-28T08:46:36;5.80;99.90
18906;DHT22;9585;51.018;4.282;2024-02-28T08:49:04;5.80;99.90
18906;DHT22;9585;51.018;4.282;2024-02-28T08:51:31;5.90;99.90
18906;DHT22;9585;51.018;4.282;2024-02-28T08:53:58;6.00;99.90
18906;DHT22;9585;51.018;4.282;2024-02-28T08:56:26;6.10;99.90
18906;DHT22;9585;51.018;4.282;2024-02-28T08:58:55;6.20;99.90
18906;DHT22;9585;51.018;4.282;2024-02-28T09:01:23;6.10;99.90
18906;DHT22;9585;51.018;4.282;2024-02-28T09:03:50;6.20;99.90
18906;DHT22;9585;51.018;4.282;2024-02-28T09:06:18;6.40;99.90
18906;DHT22;9585;51.018;4.282;2024-02-28T09:08:45;6.50;99.90
18906;DHT22;9585;51.018;4.282;2024-02-28T09:11:13;6.70;99.90
18906;DHT22;9585;51.018;4.282;2024-02-28T09:13:41;6.80;99.90
18906;DHT22;9585;51.018;4.282;2024-02-28T09:16:10;6.90;99.90
18906;DHT22;9585;51.018;4.282;2024-02-28T09:18:38;7.10;99.90
18906;DHT22;9585;51.018;4.282;2024-02-28T09:21:07;7.20;99.90
18906;DHT22;9585;51.018;4.282;2024-02-28T09:23:35;7.30;99.90
18906;DHT22;9585;51.018;4.282;2024-02-28T09:26:03;7.30;99.90
18906;DHT22;9585;51.018;4.282;2024-02-28T09:28:31;7.30;99.90
18906;DHT22;9585;51.018;4.282;2024-02-28T09:30:59;7.50;99.90
18906;DHT22;9585;51.018;4.282;2024-02-28T09:33:28;7.70;99.90
18906;DHT22;9585;51.018;4.282;2024-02-28T09:35:56;7.90;99.90
18906;DHT22;9585;51.018;4.282;2024-02-28T09:38:23;8.20;99.90
18906;DHT22;9585;51.018;4.282;2024-02-28T09:40:51;8.50;99.90
18906;DHT22;9585;51.018;4.282;2024-02-28T09:43:25;8.50;99.90
18906;DHT22;9585;51.018;4.282;2024-02-28T09:45:59;8.60;99.90
18906;DHT22;9585;51.018;4.282;2024-02-28T09:48:29;8.80;99.90
18906;DHT22;9585;51.018;4.282;2024-02-28T09:50:57;9.00;99.90
18906;DHT22;9585;51.018;4.282;2024-02-28T09:53:25;9.20;99.90
18906;DHT22;9585;51.018;4.282;2024-02-28T09:55:53;9.50;99.90
18906;DHT22;9585;51.018;4.282;2024-02-28T09:58:21;9.60;99.90
18906;DHT22;9585;51.018;4.282;2024-02-28T10:00:48;9.70;99.90
18906;DHT22;9585;51.018;4.282;2024-02-28T10:03:17;9.90;99.90
18906;DHT22;9585;51.018;4.282;2024-02-28T10:05:47;9.90;99.90
18906;DHT22;9585;51.018;4.282;2024-02-28T10:08:15;10.00;99.90
18906;DHT22;9585;51.018;4.282;2024-02-28T10:10:45;10.10;99.90
18906;DHT22;9585;51.018;4.282;2024-02-28T10:13:16;10.10;99.90
18906;DHT22;9585;51.018;4.282;2024-02-28T10:15:43;10.20;99.90
18906;DHT22;9585;51.018;4.282;2024-02-28T10:18:11;10.40;99.90
18906;DHT22;9585;51.018;4.282;2024-02-28T10:20:38;10.50;99.90
18906;DHT22;9585;51.018;4.282;2024-02-28T10:23:08;10.40;99.90
18906;DHT22;9585;51.018;4.282;2024-02-28T10:25:42;10.60;99.90
18906;DHT22;9585;51.018;4.282;2024-02-28T10:28:11;10.70;99.90
18906;DHT22;9585;51.018;4.282;2024-02-28T10:30:40;10.60;99.90
18906;DHT22;9585;51.018;4.282;2024-02-28T10:33:12;10.80;99.90
18906;DHT22;9585;51.018;4.282;2024-02-28T10:35:41;11.10;99.90
18906;DHT22;9585;51.018;4.282;2024-02-28T10:38:12;11.20;99.90
18906;DHT22;9585;51.018;4.282;2024-02-28T10:40:40;11.20;99.90
18906;DHT22;9585;51.018;4.282;2024-02-28T10:43:09;11.10;99.90
18906;DHT22;9585;51.018;4.282;2024-02-28T10:45:37;11.20;99.90
18906;DHT22;9585;51.018;4.282;2024-02-28T10:48:06;11.20;99.90
18906;DHT22;9585;51.018;4.282;2024-02-28T10:50:34;11.10;99.90
18906;DHT22;9585;51.018;4.282;2024-02-28T10:53:03;10.90;99.90
18906;DHT22;9585;51.018;4.282;2024-02-28T10:55:34;10.60;99.90
18906;DHT22;9585;51.018;4.282;2024-02-28T10:58:03;10.60;99.90
18906;DHT22;9585;51.018;4.282;2024-02-28T11:00:32;10.50;99.90
18906;DHT22;9585;51.018;4.282;2024-02-28T11:03:01;10.50;99.90
18906;DHT22;9585;51.018;4.282;2024-02-28T11:05:36;10.30;99.90
18906;DHT22;9585;51.018;4.282;2024-02-28T11:08:08;10.20;99.90
18906;DHT22;9585;51.018;4.282;2024-02-28T11:10:40;10.40;99.90
18906;DHT22;9585;51.018;4.282;2024-02-28T11:13:09;10.60;99.90
18906;DHT22;9585;51.018;4.282;2024-02-28T11:15:37;10.60;99.90
18906;DHT22;9585;51.018;4.282;2024-02-28T11:18:08;10.40;99.90
18906;DHT22;9585;51.018;4.282;2024-02-28T11:20:36;10.30;99.90
18906;DHT22;9585;51.018;4.282;2024-02-28T11:23:06;10.40;99.90
18906;DHT22;9585;51.018;4.282;2024-02-28T11:25:34;10.40;99.90
18906;DHT22;9585;51.018;4.282;2024-02-28T11:28:04;10.40;99.90
18906;DHT22;9585;51.018;4.282;2024-02-28T11:30:32;10.50;99.90
18906;DHT22;9585;51.018;4.282;2024-02-28T11:33:00;10.30;99.90
18906;DHT22;9585;51.018;4.282;2024-02-28T11:35:28;10.30;99.90
18906;DHT22;9585;51.018;4.282;2024-02-28T11:37:58;10.50;99.90
18906;DHT22;9585;51.018;4.282;2024-02-28T11:40:26;10.60;99.90
18906;DHT22;9585;51.018;4.282;2024-02-28T11:42:54;10.70;99.90
18906;DHT22;9585;51.018;4.282;2024-02-28T11:45:24;10.80;99.90
18906;DHT22;9585;51.018;4.282;2024-02-28T11:47:51;10.90;99.90
18906;DHT22;9585;51.018;4.282;2024-02-28T11:50:19;11.10;99.90
18906;DHT22;9585;51.018;4.282;2024-02-28T11:52:47;11.20;99.90
18906;DHT22;9585;51.018;4.282;2024-02-28T11:55:15;11.30;99.90
18906;DHT22;9585;51.018;4.282;2024-02-28T11:57:43;11.40;99.90
18906;DHT22;9585;51.018;4.282;2024-02-28T12:00:13;11.50;99.90
18906;DHT22;9585;51.018;4.282;2024-02-28T12:02:42;11.60;99.90
18906;DHT22;9585;51.018;4.282;2024-02-28T12:05:09;11.60;99.90
18906;DHT22;9585;51.018;4.282;2024-02-28T12:07:37;11.60;99.90
18906;DHT22;9585;51.018;4.282;2024-02-28T12:10:06;11.50;99.90
18906;DHT22;9585;51.018;4.282;2024-02-28T12:12:35;11.50;99.90
18906;DHT22;9585;51.018;4.282;2024-02-28T12:15:05;11.60;99.90
18906;DHT22;9585;51.018;4.282;2024-02-28T12:17:33;11.60;99.90
18906;DHT22;9585;51.018;4.282;2024-02-28T12:20:06;11.50;99.90
18906;DHT22;9585;51.018;4.282;2024-02-28T12:22:34;11.30;99.90
18906;DHT22;9585;51.018;4.282;2024-02-28T12:25:01;11.30;99.90
18906;DHT22;9585;51.018;4.282;2024-02-28T12:27:30;11.50;99.90
18906;DHT22;9585;51.018;4.282;2024-02-28T12:29:58;11.70;99.90
18906;DHT22;9585;51.018;4.282;2024-02-28T12:32:26;11.90;99.90
18906;DHT22;9585;51.018;4.282;2024-02-28T12:34:53;12.00;99.90
18906;DHT22;9585;51.018;4.282;2024-02-28T12:37:23;12.00;99.90
18906;DHT22;9585;51.018;4.282;2024-02-28T12:39:50;12.00;99.90
18906;DHT22;9585;51.018;4.282;2024-02-28T12:42:18;11.80;99.90
18906;DHT22;9585;51.018;4.282;2024-02-28T12:44:46;11.70;99.90
18906;DHT22;9585;51.018;4.282;2024-02-28T12:47:14;11.60;99.90
18906;DHT22;9585;51.018;4.282;2024-02-28T12:49:41;11.80;99.90
18906;DHT22;9585;51.018;4.282;2024-02-28T12:52:09;11.90;99.90
18906;DHT22;9585;51.018;4.282;2024-02-28T12:54:39;12.10;99.90
18906;DHT22;9585;51.018;4.282;2024-02-28T12:57:07;12.00;99.90
18906;DHT22;9585;51.018;4.282;2024-02-28T12:59:35;11.90;99.90
18906;DHT22;9585;51.018;4.282;2024-02-28T13:02:05;12.00;99.90
18906;DHT22;9585;51.018;4.282;2024-02-28T13:04:32;12.00;99.90
18906;DHT22;9585;51.018;4.282;2024-02-28T13:07:00;12.00;99.90
18906;DHT22;9585;51.018;4.282;2024-02-28T13:09:28;12.00;99.90
18906;DHT22;9585;51.018;4.282;2024-02-28T13:11:57;11.90;99.90
18906;DHT22;9585;51.018;4.282;2024-02-28T13:14:25;11.90;99.90
18906;DHT22;9585;51.018;4.282;2024-02-28T13:16:53;11.80;99.90
18906;DHT22;9585;51.018;4.282;2024-02-28T13:19:20;12.00;99.90
18906;DHT22;9585;51.018;4.282;2024-02-28T13:21:48;12.10;99.90
18906;DHT22;9585;51.018;4.282;2024-02-28T13:24:16;12.30;99.90
18906;DHT22;9585;51.018;4.282;2024-02-28T13:26:44;12.30;99.90
18906;DHT22;9585;51.018;4.282;2024-02-28T13:29:13;12.30;99.90
18906;DHT22;9585;51.018;4.282;2024-02-28T13:31:41;12.30;99.90
18906;DHT22;9585;51.018;4.282;2024-02-28T13:34:08;12.20;99.90
18906;DHT22;9585;51.018;4.282;2024-02-28T13:36:36;12.20;99.90
18906;DHT22;9585;51.018;4.282;2024-02-28T13:39:08;12.30;99.90
18906;DHT22;9585;51.018;4.282;2024-02-28T13:41:39;12.40;99.90
18906;DHT22;9585;51.018;4.282;2024-02-28T13:44:07;12.30;99.90
18906;DHT22;9585;51.018;4.282;2024-02-28T13:46:37;12.20;99.90
18906;DHT22;9585;51.018;4.282;2024-02-28T13:49:07;12.30;99.90
18906;DHT22;9585;51.018;4.282;2024-02-28T13:51:35;12.40;99.90
18906;DHT22;9585;51.018;4.282;2024-02-28T13:54:03;12.40;99.90
18906;DHT22;9585;51.018;4.282;2024-02-28T13:56:31;12.20;99.90
18906;DHT22;9585;51.018;4.282;2024-02-28T13:58:59;12.20;99.90
18906;DHT22;9585;51.018;4.282;2024-02-28T14:01:27;12.10;99.90
18906;DHT22;9585;51.018;4.282;2024-02-28T14:03:57;12.10;99.90
18906;DHT22;9585;51.018;4.282;2024-02-28T14:06:24;11.90;99.90
18906;DHT22;9585;51.018;4.282;2024-02-28T14:08:52;12.00;99.90
18906;DHT22;9585;51.018;4.282;2024-02-28T14:11:20;12.10;99.90
18906;DHT22;9585;51.018;4.282;2024-02-28T14:13:48;12.10;99.90
18906;DHT22;9585;51.018;4.282;2024-02-28T14:16:15;12.00;99.90
18906;DHT22;9585;51.018;4.282;2024-02-28T14:18:45;12.00;99.90
18906;DHT22;9585;51.018;4.282;2024-02-28T14:21:14;12.00;99.90
18906;DHT22;9585;51.018;4.282;2024-02-28T14:23:42;12.10;99.90
18906;DHT22;9585;51.018;4.282;2024-02-28T14:26:10;12.10;99.90
18906;DHT22;9585;51.018;4.282;2024-02-28T14:28:37;12.10;99.90
18906;DHT22;9585;51.018;4.282;2024-02-28T14:31:05;12.10;99.90
18906;DHT22;9585;51.018;4.282;2024-02-28T14:33:33;11.90;99.90
18906;DHT22;9585;51.018;4.282;2024-02-28T14:36:00;12.00;99.90
18906;DHT22;9585;51.018;4.282;2024-02-28T14:38:31;12.20;99.90
18906;DHT22;9585;51.018;4.282;2024-02-28T14:40:59;12.00;99.90
18906;DHT22;9585;51.018;4.282;2024-02-28T14:43:27;12.00;99.90
18906;DHT22;9585;51.018;4.282;2024-02-28T14:45:56;12.10;99.90
18906;DHT22;9585;51.018;4.282;2024-02-28T14:48:24;12.20;99.90
18906;DHT22;9585;51.018;4.282;2024-02-28T14:50:51;12.00;99.90
18906;DHT22;9585;51.018;4.282;2024-02-28T14:53:19;11.90;99.90
18906;DHT22;9585;51.018;4.282;2024-02-28T14:55:49;12.00;99.90
18906;DHT22;9585;51.018;4.282;2024-02-28T14:58:17;12.20;99.90
18906;DHT22;9585;51.018;4.282;2024-02-28T15:00:45;12.00;99.90
18906;DHT22;9585;51.018;4.282;2024-02-28T15:03:14;11.90;99.90
18906;DHT22;9585;51.018;4.282;2024-02-28T15:05:41;11.90;99.90
18906;DHT22;9585;51.018;4.282;2024-02-28T15:08:11;11.90;99.90
18906;DHT22;9585;51.018;4.282;2024-02-28T15:10:39;11.80;99.90
18906;DHT22;9585;51.018;4.282;2024-02-28T15:13:08;11.80;99.90
18906;DHT22;9585;51.018;4.282;2024-02-28T15:15:35;11.70;99.90
18906;DHT22;9585;51.018;4.282;2024-02-28T15:18:03;11.60;99.90
18906;DHT22;9585;51.018;4.282;2024-02-28T15:20:31;11.40;99.90
18906;DHT22;9585;51.018;4.282;2024-02-28T15:22:58;11.50;99.90
18906;DHT22;9585;51.018;4.282;2024-02-28T15:25:26;11.40;99.90
18906;DHT22;9585;51.018;4.282;2024-02-28T15:27:54;11.30;99.90
18906;DHT22;9585;51.018;4.282;2024-02-28T15:30:23;11.40;99.90
18906;DHT22;9585;51.018;4.282;2024-02-28T15:32:51;11.50;99.90
18906;DHT22;9585;51.018;4.282;2024-02-28T15:35:19;11.60;99.90
18906;DHT22;9585;51.018;4.282;2024-02-28T15:37:48;11.60;99.90
18906;DHT22;9585;51.018;4.282;2024-02-28T15:40:16;11.70;99.90
18906;DHT22;9585;51.018;4.282;2024-02-28T15:42:47;11.70;99.90
18906;DHT22;9585;51.018;4.282;2024-02-28T15:45:14;11.60;99.90
18906;DHT22;9585;51.018;4.282;2024-02-28T15:47:45;11.60;99.90
18906;DHT22;9585;51.018;4.282;2024-02-28T15:50:13;11.60;99.90
18906;DHT22;9585;51.018;4.282;2024-02-28T15:52:41;11.40;99.90
18906;DHT22;9585;51.018;4.282;2024-02-28T15:55:10;11.40;99.90
18906;DHT22;9585;51.018;4.282;2024-02-28T15:57:38;11.30;99.90
18906;DHT22;9585;51.018;4.282;2024-02-28T16:00:07;11.20;99.90
18906;DHT22;9585;51.018;4.282;2024-02-28T16:02:35;11.10;99.90
18906;DHT22;9585;51.018;4.282;2024-02-28T16:05:06;10.80;99.90
18906;DHT22;9585;51.018;4.282;2024-02-28T16:07:33;10.70;99.90
18906;DHT22;9585;51.018;4.282;2024-02-28T16:10:01;10.70;99.90
18906;DHT22;9585;51.018;4.282;2024-02-28T16:12:29;10.60;99.90
18906;DHT22;9585;51.018;4.282;2024-02-28T16:14:57;10.60;99.90
18906;DHT22;9585;51.018;4.282;2024-02-28T16:17:25;10.50;99.90
18906;DHT22;9585;51.018;4.282;2024-02-28T16:19:53;10.50;99.90